M I D A S
Marine Information and Data Acquisition System
Tripno 1035 of the Zeeleeuw from 2006-02-23 09:23:43 to 2006-02-23 15:21:12
Back to CruiseResearch ActivitiesStationsMapUnderway DataData graphs

EquipmentUnitsComment
TimeDGPSUTC
LatitudeDGPSDM.mWGS84
LongitudeDGPSDM.mWGS84
HeadingGyrodeg 
SOGDGPSknotsSpeed over ground
COGDGPSdegCourse over ground
DepthEcho soundermeters200 kHz
Missing or incorrect values are displayed as -999
Navigation data collected by the RV Zeeleeuw from 2006-02-23 07:19:30 to 2006-02-23 15:32:57
                                                                                    Next 1000 lines
Time Latitude Longitude Heading SOG COG Depth
2006-02-23 07:19:40 51°13.599 2°56.093 124.6 0.1 312 -999
2006-02-23 07:19:45 51°13.599 2°56.093 124.3 -999 91 -999
2006-02-23 07:19:50 51°13.598 2°56.093 124.2 0.1 181 -999
2006-02-23 07:19:55 51°13.598 2°56.094 124.4 -999 102 -999
2006-02-23 07:20:00 51°13.598 2°56.094 124.7 0.1 138 -999
2006-02-23 07:20:05 51°13.598 2°56.094 124.8 -999 122 -999
2006-02-23 07:20:10 51°13.598 2°56.094 125 -999 115 -999
2006-02-23 07:20:15 51°13.598 2°56.094 125.2 -999 127 -999
2006-02-23 07:20:20 51°13.598 2°56.094 125.5 -999 107 -999
2006-02-23 07:20:25 51°13.598 2°56.094 125.6 -999 137 -999
2006-02-23 07:20:30 51°13.598 2°56.094 125.7 -999 183 -999
2006-02-23 07:20:35 51°13.598 2°56.094 125.7 -999 185 -999
2006-02-23 07:20:40 51°13.598 2°56.094 125.8 -999 170 -999
2006-02-23 07:20:45 51°13.598 2°56.094 125.9 -999 140 -999
2006-02-23 07:20:50 51°13.598 2°56.094 126 -999 158 -999
2006-02-23 07:20:55 51°13.598 2°56.094 126.2 -999 109 -999
2006-02-23 07:21:00 51°13.598 2°56.094 126.3 -999 222 -999
2006-02-23 07:21:05 51°13.598 2°56.094 126.4 -999 350 -999
2006-02-23 07:21:10 51°13.598 2°56.094 126.4 -999 334 -999
2006-02-23 07:21:15 51°13.598 2°56.094 126.3 -999 341 -999
2006-02-23 07:21:20 51°13.598 2°56.094 126.2 -999 281 -999
2006-02-23 07:21:25 51°13.598 2°56.094 126.1 -999 328 -999
2006-02-23 07:21:30 51°13.598 2°56.093 125.9 -999 316 -999
2006-02-23 07:21:35 51°13.598 2°56.093 125.8 -999 353 -999
2006-02-23 07:21:40 51°13.598 2°56.093 125.7 -999 218 -999
2006-02-23 07:21:45 51°13.598 2°56.093 125.7 -999 282 -999
2006-02-23 07:21:50 51°13.598 2°56.093 125.7 -999 48 -999
2006-02-23 07:21:55 51°13.598 2°56.093 125.7 -999 151 -999
2006-02-23 07:22:00 51°13.598 2°56.093 125.7 -999 238 -999
2006-02-23 07:22:05 51°13.598 2°56.094 125.7 -999 33 -999
2006-02-23 07:22:10 51°13.598 2°56.094 125.8 -999 101 -999
2006-02-23 07:22:15 51°13.598 2°56.094 125.8 -999 116 -999
2006-02-23 07:22:20 51°13.598 2°56.094 125.8 -999 146 -999
2006-02-23 07:22:25 51°13.598 2°56.094 125.9 -999 158 -999
2006-02-23 07:22:30 51°13.598 2°56.094 126.1 -999 177 -999
2006-02-23 07:22:35 51°13.598 2°56.094 126.2 -999 127 -999
2006-02-23 07:22:40 51°13.598 2°56.094 126.4 -999 157 -999
2006-02-23 07:22:45 51°13.598 2°56.094 126.4 -999 91 -999
2006-02-23 07:22:50 51°13.598 2°56.094 126.6 -999 182 -999
2006-02-23 07:22:55 51°13.598 2°56.094 126.8 -999 63 -999
2006-02-23 07:23:00 51°13.598 2°56.093 126.8 -999 228 -999
2006-02-23 07:23:05 51°13.598 2°56.093 126.8 -999 332 -999
2006-02-23 07:23:10 51°13.598 2°56.093 126.8 -999 318 -999
2006-02-23 07:23:15 51°13.598 2°56.093 126.8 -999 301 -999
2006-02-23 07:23:20 51°13.598 2°56.093 126.8 -999 293 -999
2006-02-23 07:23:25 51°13.598 2°56.093 126.7 0.1 329 -999
2006-02-23 07:23:30 51°13.598 2°56.093 126.5 0.1 325 -999
2006-02-23 07:23:35 51°13.598 2°56.093 126.2 0.1 316 -999
2006-02-23 07:23:40 51°13.598 2°56.093 126 0.1 295 -999
2006-02-23 07:23:45 51°13.599 2°56.093 125.8 0.1 321 -999
2006-02-23 07:23:50 51°13.599 2°56.093 125.6 -999 267 -999
2006-02-23 07:23:55 51°13.598 2°56.093 125.4 -999 346 -999
2006-02-23 07:24:00 51°13.598 2°56.093 125.2 -999 173 -999
2006-02-23 07:24:05 51°13.598 2°56.093 125.2 -999 139 -999
2006-02-23 07:24:10 51°13.598 2°56.093 125.2 -999 120 -999
2006-02-23 07:24:15 51°13.598 2°56.093 125.4 -999 104 -999
2006-02-23 07:24:20 51°13.598 2°56.093 125.4 -999 139 -999
2006-02-23 07:24:25 51°13.598 2°56.093 125.4 -999 110 -999
2006-02-23 07:24:30 51°13.598 2°56.093 125.5 -999 149 -999
2006-02-23 07:24:35 51°13.598 2°56.094 125.8 -999 112 -999
2006-02-23 07:24:40 51°13.598 2°56.094 126.1 -999 140 -999
2006-02-23 07:24:45 51°13.598 2°56.094 126.2 -999 108 -999
2006-02-23 07:24:50 51°13.598 2°56.094 126.4 -999 178 -999
2006-02-23 07:24:55 51°13.598 2°56.094 126.6 -999 162 -999
2006-02-23 07:25:00 51°13.598 2°56.094 126.6 -999 180 -999
2006-02-23 07:25:05 51°13.598 2°56.094 126.6 -999 126 -999
2006-02-23 07:25:10 51°13.598 2°56.094 126.6 -999 112 -999
2006-02-23 07:25:15 51°13.598 2°56.094 126.6 -999 130 -999
2006-02-23 07:25:20 51°13.598 2°56.094 126.6 -999 204 -999
2006-02-23 07:25:25 51°13.598 2°56.094 126.6 -999 158 -999
2006-02-23 07:25:30 51°13.599 2°56.094 126.6 -999 196 -999
2006-02-23 07:25:35 51°13.599 2°56.094 126.8 -999 221 -999
2006-02-23 07:25:40 51°13.598 2°56.095 127 -999 237 -999
2006-02-23 07:25:45 51°13.599 2°56.095 127.1 -999 175 -999
2006-02-23 07:25:50 51°13.599 2°56.095 127.1 -999 267 -999
2006-02-23 07:25:55 51°13.599 2°56.095 127.1 -999 107 -999
2006-02-23 07:26:00 51°13.599 2°56.095 127.1 -999 166 -999
2006-02-23 07:26:05 51°13.599 2°56.095 127 -999 82 -999
2006-02-23 07:26:10 51°13.599 2°56.095 127 -999 348 -999
2006-02-23 07:26:15 51°13.599 2°56.095 126.9 -999 332 -999
2006-02-23 07:26:20 51°13.599 2°56.095 126.8 -999 300 -999
2006-02-23 07:26:25 51°13.599 2°56.095 126.7 -999 303 -999
2006-02-23 07:26:30 51°13.599 2°56.095 126.7 -999 302 -999
2006-02-23 07:26:35 51°13.599 2°56.095 126.6 -999 310 -999
2006-02-23 07:26:40 51°13.599 2°56.095 126.5 -999 278 -999
2006-02-23 07:26:45 51°13.599 2°56.095 126.5 -999 350 -999
2006-02-23 07:26:50 51°13.599 2°56.095 126.4 -999 229 -999
2006-02-23 07:26:55 51°13.599 2°56.095 126.3 -999 304 -999
2006-02-23 07:27:00 51°13.599 2°56.095 126.2 -999 160 -999
2006-02-23 07:27:05 51°13.599 2°56.095 126.2 -999 67 -999
2006-02-23 07:27:10 51°13.599 2°56.095 126.2 -999 206 -999
2006-02-23 07:27:15 51°13.599 2°56.095 126.2 -999 306 -999
2006-02-23 07:27:20 51°13.599 2°56.095 126.2 -999 311 -999
2006-02-23 07:27:25 51°13.599 2°56.095 126.2 -999 335 -999
2006-02-23 07:27:30 51°13.599 2°56.094 126.2 -999 259 -999
2006-02-23 07:27:35 51°13.599 2°56.094 126.2 -999 83 -999
2006-02-23 07:27:40 51°13.599 2°56.094 126.2 -999 196 -999
2006-02-23 07:27:45 51°13.599 2°56.094 126.2 -999 118 -999
2006-02-23 07:27:50 51°13.599 2°56.094 126.2 -999 138 -999
2006-02-23 07:27:55 51°13.599 2°56.094 126.2 -999 165 -999
2006-02-23 07:28:00 51°13.599 2°56.094 126.2 -999 170 -999
2006-02-23 07:28:05 51°13.599 2°56.094 126.2 -999 153 -999
2006-02-23 07:28:10 51°13.599 2°56.094 126.2 -999 117 -999
2006-02-23 07:28:15 51°13.599 2°56.094 126.2 -999 167 -999
2006-02-23 07:28:20 51°13.599 2°56.094 126.2 -999 109 -999
2006-02-23 07:28:25 51°13.599 2°56.094 126.3 0.1 174 -999
2006-02-23 07:28:30 51°13.599 2°56.094 126.6 -999 146 -999
2006-02-23 07:28:35 51°13.599 2°56.094 126.8 -999 163 -999
2006-02-23 07:28:40 51°13.599 2°56.095 127.1 -999 60 -999
2006-02-23 07:28:45 51°13.599 2°56.095 127.2 -999 184 -999
2006-02-23 07:28:50 51°13.599 2°56.095 127.2 -999 34 -999
2006-02-23 07:28:55 51°13.599 2°56.095 127.2 -999 223 -999
2006-02-23 07:29:00 51°13.599 2°56.095 127.2 -999 313 -999
2006-02-23 07:29:05 51°13.599 2°56.095 127.1 -999 304 -999
2006-02-23 07:29:10 51°13.599 2°56.095 127.1 -999 202 -999
2006-02-23 07:29:15 51°13.599 2°56.095 127.1 -999 5 -999
2006-02-23 07:29:20 51°13.599 2°56.095 127.1 -999 217 -999
2006-02-23 07:29:25 51°13.599 2°56.095 127.1 -999 205 -999
2006-02-23 07:29:30 51°13.599 2°56.095 127.1 -999 351 -999
2006-02-23 07:29:35 51°13.599 2°56.095 127 -999 272 -999
2006-02-23 07:29:40 51°13.599 2°56.095 127 -999 300 -999
2006-02-23 07:29:45 51°13.599 2°56.095 127 -999 286 -999
2006-02-23 07:29:50 51°13.599 2°56.095 127 -999 329 -999
2006-02-23 07:29:55 51°13.599 2°56.095 127 -999 342 -999
2006-02-23 07:30:00 51°13.599 2°56.095 127 -999 301 -999
2006-02-23 07:30:05 51°13.599 2°56.095 126.9 -999 349 -999
2006-02-23 07:30:10 51°13.599 2°56.095 126.8 -999 317 -999
2006-02-23 07:30:15 51°13.599 2°56.095 126.6 -999 303 -999
2006-02-23 07:30:20 51°13.599 2°56.095 126.4 -999 339 -999
2006-02-23 07:30:25 51°13.599 2°56.094 126.2 -999 305 -999
2006-02-23 07:30:30 51°13.599 2°56.095 126 -999 287 -999
2006-02-23 07:30:35 51°13.599 2°56.095 125.9 -999 295 -999
2006-02-23 07:30:40 51°13.599 2°56.095 125.8 -999 286 -999
2006-02-23 07:30:45 51°13.599 2°56.095 125.7 -999 12 -999
2006-02-23 07:30:50 51°13.599 2°56.095 125.6 -999 106 -999
2006-02-23 07:30:55 51°13.599 2°56.095 125.6 -999 162 -999
2006-02-23 07:31:00 51°13.599 2°56.095 125.6 -999 110 -999
2006-02-23 07:31:05 51°13.599 2°56.095 125.7 -999 147 -999
2006-02-23 07:31:10 51°13.599 2°56.095 125.8 -999 140 -999
2006-02-23 07:31:15 51°13.599 2°56.095 125.9 -999 157 -999
2006-02-23 07:31:20 51°13.599 2°56.095 126 -999 91 -999
2006-02-23 07:31:25 51°13.599 2°56.095 126.1 -999 149 -999
2006-02-23 07:31:30 51°13.599 2°56.095 126.1 -999 276 -999
2006-02-23 07:31:35 51°13.599 2°56.095 126.1 -999 116 -999
2006-02-23 07:31:40 51°13.599 2°56.095 126.1 -999 336 -999
2006-02-23 07:31:45 51°13.599 2°56.095 126.1 -999 302 -999
2006-02-23 07:31:50 51°13.599 2°56.095 126.1 -999 349 -999
2006-02-23 07:31:55 51°13.599 2°56.095 126.1 -999 174 -999
2006-02-23 07:32:00 51°13.599 2°56.095 126.1 -999 131 -999
2006-02-23 07:32:05 51°13.599 2°56.095 126.1 -999 150 -999
2006-02-23 07:32:10 51°13.599 2°56.095 126.1 -999 81 -999
2006-02-23 07:32:15 51°13.599 2°56.095 126.2 -999 157 -999
2006-02-23 07:32:20 51°13.599 2°56.095 126.2 -999 139 -999
2006-02-23 07:32:25 51°13.599 2°56.095 126.5 -999 154 -999
2006-02-23 07:32:30 51°13.599 2°56.095 126.8 -999 176 -999
2006-02-23 07:32:35 51°13.599 2°56.095 126.9 -999 109 -999
2006-02-23 07:32:40 51°13.598 2°56.095 127 -999 204 -999
2006-02-23 07:32:45 51°13.598 2°56.096 127 -999 95 -999
2006-02-23 07:32:50 51°13.598 2°56.096 127 -999 164 -999
2006-02-23 07:32:55 51°13.599 2°56.096 127 -999 39 -999
2006-02-23 07:33:00 51°13.598 2°56.096 127 -999 228 -999
2006-02-23 07:33:05 51°13.599 2°56.096 127 -999 8 -999
2006-02-23 07:33:10 51°13.599 2°56.096 127 -999 307 -999
2006-02-23 07:33:15 51°13.599 2°56.096 127 -999 278 -999
2006-02-23 07:33:20 51°13.599 2°56.096 127 -999 263 -999
2006-02-23 07:33:25 51°13.599 2°56.096 127 -999 248 -999
2006-02-23 07:33:30 51°13.599 2°56.096 127 -999 114 -999
2006-02-23 07:33:35 51°13.599 2°56.096 127 -999 76 -999
2006-02-23 07:33:40 51°13.599 2°56.096 127 -999 211 -999
2006-02-23 07:33:45 51°13.598 2°56.096 126.9 -999 329 -999
2006-02-23 07:33:50 51°13.598 2°56.096 126.9 -999 304 -999
2006-02-23 07:33:55 51°13.598 2°56.096 126.9 -999 324 -999
2006-02-23 07:34:00 51°13.598 2°56.096 126.9 -999 303 -999
2006-02-23 07:34:05 51°13.598 2°56.096 126.9 -999 270 -999
2006-02-23 07:34:10 51°13.598 2°56.096 126.9 -999 356 -999
2006-02-23 07:34:15 51°13.598 2°56.096 126.9 -999 330 -999
2006-02-23 07:34:20 51°13.598 2°56.096 126.7 -999 25 -999
2006-02-23 07:34:25 51°13.598 2°56.096 126.6 -999 276 -999
2006-02-23 07:34:30 51°13.598 2°56.096 126.5 -999 103 -999
2006-02-23 07:34:35 51°13.598 2°56.096 126.3 -999 182 -999
2006-02-23 07:34:40 51°13.598 2°56.096 126.3 -999 115 -999
2006-02-23 07:34:45 51°13.598 2°56.096 126.2 -999 229 -999
2006-02-23 07:34:50 51°13.598 2°56.096 126.3 -999 155 -999
2006-02-23 07:34:55 51°13.598 2°56.096 126.4 -999 155 -999
2006-02-23 07:35:00 51°13.598 2°56.096 126.6 -999 19 -999
2006-02-23 07:35:05 51°13.598 2°56.096 126.6 -999 271 -999
2006-02-23 07:35:10 51°13.598 2°56.096 126.8 -999 204 -999
2006-02-23 07:35:15 51°13.598 2°56.096 126.8 -999 44 -999
2006-02-23 07:35:20 51°13.598 2°56.096 126.8 -999 167 -999
2006-02-23 07:35:25 51°13.598 2°56.096 126.8 -999 324 -999
2006-02-23 07:35:30 51°13.598 2°56.096 126.8 -999 14 -999
2006-02-23 07:35:35 51°13.598 2°56.096 126.7 -999 311 -999
2006-02-23 07:35:40 51°13.598 2°56.096 126.6 -999 320 -999
2006-02-23 07:35:45 51°13.598 2°56.096 126.5 -999 313 -999
2006-02-23 07:35:50 51°13.598 2°56.096 126.5 -999 277 -999
2006-02-23 07:35:55 51°13.598 2°56.096 126.4 -999 266 -999
2006-02-23 07:36:00 51°13.598 2°56.096 126.4 -999 164 -999
2006-02-23 07:36:05 51°13.598 2°56.096 126.4 -999 67 -999
2006-02-23 07:36:10 51°13.598 2°56.096 126.4 -999 159 -999
2006-02-23 07:36:15 51°13.599 2°56.096 126.4 -999 249 -999
2006-02-23 07:36:19 51°13.599 2°56.096 126.4 -999 339 -999
2006-02-23 07:36:25 51°13.599 2°56.096 126.4 -999 326 -999
2006-02-23 07:36:30 51°13.599 2°56.097 126.4 -999 195 -999
2006-02-23 07:36:35 51°13.599 2°56.097 126.4 -999 178 -999
2006-02-23 07:36:40 51°13.599 2°56.097 126.4 -999 9 -999
2006-02-23 07:36:45 51°13.599 2°56.097 126.4 -999 203 -999
2006-02-23 07:36:50 51°13.599 2°56.097 126.4 -999 325 -999
2006-02-23 07:36:55 51°13.599 2°56.097 126.4 -999 136 -999
2006-02-23 07:37:00 51°13.599 2°56.097 126.4 -999 143 -999
2006-02-23 07:37:05 51°13.599 2°56.097 126.3 -999 201 -999
2006-02-23 07:37:10 51°13.599 2°56.097 126.3 -999 352 -999
2006-02-23 07:37:15 51°13.599 2°56.097 126.3 -999 178 -999
2006-02-23 07:37:19 51°13.599 2°56.097 126.3 -999 29 -999
2006-02-23 07:37:25 51°13.599 2°56.097 126.3 -999 54 -999
2006-02-23 07:37:30 51°13.599 2°56.097 126.3 -999 150 -999
2006-02-23 07:37:34 51°13.599 2°56.097 126.3 -999 91 -999
2006-02-23 07:37:39 51°13.599 2°56.097 126.3 -999 169 -999
2006-02-23 07:37:43 51°13.599 2°56.097 126.3 -999 338 -999
2006-02-23 07:37:48 51°13.599 2°56.097 126.3 -999 86 -999
2006-02-23 07:37:53 51°13.598 2°56.097 126.2 -999 213 -999
2006-02-23 07:37:57 51°13.598 2°56.097 126.2 -999 264 -999
2006-02-23 07:38:02 51°13.598 2°56.097 126.2 -999 271 -999
2006-02-23 07:38:07 51°13.598 2°56.097 126.2 -999 291 -999
2006-02-23 07:38:12 51°13.598 2°56.097 126.2 -999 38 -999
2006-02-23 07:38:17 51°13.598 2°56.097 126.2 -999 341 -999
2006-02-23 07:38:23 51°13.598 2°56.097 126.2 -999 100 -999
2006-02-23 07:38:27 51°13.598 2°56.097 126.2 -999 186 -999
2006-02-23 07:38:32 51°13.598 2°56.097 126.2 -999 47 -999
2006-02-23 07:38:37 51°13.598 2°56.097 126.2 -999 120 -999
2006-02-23 07:38:43 51°13.598 2°56.097 126.2 -999 146 -999
2006-02-23 07:38:47 51°13.598 2°56.096 126.2 -999 242 -999
2006-02-23 07:38:52 51°13.598 2°56.096 126.2 -999 88 -999
2006-02-23 07:38:57 51°13.598 2°56.096 126.2 -999 201 -999
2006-02-23 07:39:03 51°13.598 2°56.096 126.2 -999 314 -999
2006-02-23 07:39:07 51°13.598 2°56.096 126.2 -999 338 -999
2006-02-23 07:39:12 51°13.599 2°56.096 126.3 -999 299 -999
2006-02-23 07:39:17 51°13.599 2°56.096 126.3 -999 295 -999
2006-02-23 07:39:22 51°13.599 2°56.096 126.3 -999 313 -999
2006-02-23 07:39:27 51°13.599 2°56.096 126.3 -999 214 -999
2006-02-23 07:39:32 51°13.599 2°56.096 126.3 -999 44 -999
2006-02-23 07:39:37 51°13.599 2°56.096 126.2 -999 157 -999
2006-02-23 07:39:42 51°13.599 2°56.097 126.2 -999 132 -999
2006-02-23 07:39:47 51°13.599 2°56.096 126.2 -999 117 -999
2006-02-23 07:39:52 51°13.599 2°56.096 126.2 -999 214 -999
2006-02-23 07:39:57 51°13.599 2°56.096 126.2 -999 338 -999
2006-02-23 07:40:02 51°13.599 2°56.096 126.2 -999 258 -999
2006-02-23 07:40:07 51°13.599 2°56.096 126.2 -999 266 -999
2006-02-23 07:40:12 51°13.599 2°56.096 126.2 -999 357 -999
2006-02-23 07:40:17 51°13.599 2°56.096 126.2 -999 288 -999
2006-02-23 07:40:22 51°13.599 2°56.096 126.2 -999 169 -999
2006-02-23 07:40:27 51°13.599 2°56.096 126.2 -999 185 -999
2006-02-23 07:40:32 51°13.599 2°56.096 126.2 -999 150 -999
2006-02-23 07:40:37 51°13.599 2°56.096 126.2 -999 152 -999
2006-02-23 07:40:43 51°13.599 2°56.096 126.2 -999 30 -999
2006-02-23 07:40:47 51°13.599 2°56.096 126.2 -999 111 -999
2006-02-23 07:40:52 51°13.599 2°56.096 126.2 -999 254 -999
2006-02-23 07:40:57 51°13.599 2°56.096 126.2 -999 305 -999
2006-02-23 07:41:03 51°13.599 2°56.096 126.2 -999 30 -999
2006-02-23 07:41:07 51°13.599 2°56.096 126.2 -999 135 -999
2006-02-23 07:41:12 51°13.599 2°56.096 126.2 -999 225 -999
2006-02-23 07:41:17 51°13.599 2°56.096 126.2 -999 3 -999
2006-02-23 07:41:23 51°13.599 2°56.096 126.2 -999 110 -999
2006-02-23 07:41:27 51°13.599 2°56.096 126.2 -999 258 -999
2006-02-23 07:41:32 51°13.599 2°56.095 126.2 -999 101 -999
2006-02-23 07:41:37 51°13.599 2°56.095 126.1 -999 177 -999
2006-02-23 07:41:42 51°13.599 2°56.095 126.1 -999 231 -999
2006-02-23 07:41:47 51°13.599 2°56.095 126.1 -999 329 -999
2006-02-23 07:41:52 51°13.599 2°56.095 126.1 -999 309 -999
2006-02-23 07:41:57 51°13.599 2°56.095 126.1 -999 284 -999
2006-02-23 07:42:02 51°13.599 2°56.095 126.1 -999 324 -999
2006-02-23 07:42:07 51°13.599 2°56.095 126.1 -999 287 -999
2006-02-23 07:42:12 51°13.599 2°56.095 126.1 -999 4 -999
2006-02-23 07:42:17 51°13.599 2°56.095 126 -999 140 -999
2006-02-23 07:42:22 51°13.599 2°56.095 125.9 -999 120 -999
2006-02-23 07:42:27 51°13.599 2°56.095 125.8 -999 45 -999
2006-02-23 07:42:33 51°13.599 2°56.094 125.7 -999 329 -999
2006-02-23 07:42:37 51°13.599 2°56.094 125.7 -999 296 -999
2006-02-23 07:42:42 51°13.599 2°56.094 125.7 -999 334 -999
2006-02-23 07:42:47 51°13.599 2°56.094 125.7 -999 328 -999
2006-02-23 07:42:52 51°13.599 2°56.094 125.7 -999 122 -999
2006-02-23 07:42:57 51°13.599 2°56.094 125.7 -999 106 -999
2006-02-23 07:43:03 51°13.599 2°56.094 125.7 -999 126 -999
2006-02-23 07:43:07 51°13.599 2°56.094 125.7 -999 127 -999
2006-02-23 07:43:12 51°13.599 2°56.094 125.7 -999 162 -999
2006-02-23 07:43:17 51°13.598 2°56.094 125.7 -999 124 -999
2006-02-23 07:43:23 51°13.598 2°56.094 125.7 -999 121 -999
2006-02-23 07:43:27 51°13.598 2°56.094 125.8 -999 117 -999
2006-02-23 07:43:32 51°13.598 2°56.094 126 -999 115 -999
2006-02-23 07:43:37 51°13.598 2°56.094 126.1 -999 130 -999
2006-02-23 07:43:43 51°13.598 2°56.094 126.2 -999 151 -999
2006-02-23 07:43:47 51°13.598 2°56.094 126.4 -999 139 -999
2006-02-23 07:43:52 51°13.598 2°56.094 126.6 -999 168 -999
2006-02-23 07:43:57 51°13.598 2°56.094 126.8 -999 164 -999
2006-02-23 07:44:02 51°13.598 2°56.094 126.8 -999 129 -999
2006-02-23 07:44:07 51°13.598 2°56.094 126.9 -999 136 -999
2006-02-23 07:44:12 51°13.598 2°56.094 126.9 -999 70 -999
2006-02-23 07:44:17 51°13.598 2°56.094 126.9 -999 74 -999
2006-02-23 07:44:22 51°13.598 2°56.094 126.9 -999 322 -999
2006-02-23 07:44:27 51°13.598 2°56.094 126.9 -999 321 -999
2006-02-23 07:44:32 51°13.598 2°56.094 126.8 -999 343 -999
2006-02-23 07:44:37 51°13.598 2°56.095 126.8 -999 335 -999
2006-02-23 07:44:42 51°13.598 2°56.095 126.8 -999 289 -999
2006-02-23 07:44:47 51°13.598 2°56.094 126.7 -999 288 -999
2006-02-23 07:44:52 51°13.598 2°56.094 126.7 -999 310 -999
2006-02-23 07:44:57 51°13.598 2°56.094 126.7 -999 301 -999
2006-02-23 07:45:02 51°13.598 2°56.094 126.6 -999 314 -999
2006-02-23 07:45:07 51°13.598 2°56.094 126.5 -999 319 -999
2006-02-23 07:45:12 51°13.598 2°56.094 126.5 -999 312 -999
2006-02-23 07:45:17 51°13.599 2°56.094 126.3 -999 302 -999
2006-02-23 07:45:23 51°13.599 2°56.094 126.2 0.1 322 -999
2006-02-23 07:45:27 51°13.599 2°56.094 126 -999 329 -999
2006-02-23 07:45:32 51°13.599 2°56.094 125.8 -999 302 -999
2006-02-23 07:45:37 51°13.599 2°56.094 125.6 -999 236 -999
2006-02-23 07:45:43 51°13.599 2°56.094 125.5 -999 346 -999
2006-02-23 07:45:47 51°13.599 2°56.094 125.5 -999 319 -999
2006-02-23 07:45:52 51°13.599 2°56.094 125.5 -999 4 -999
2006-02-23 07:45:57 51°13.599 2°56.094 125.5 -999 351 -999
2006-02-23 07:46:02 51°13.599 2°56.094 125.5 -999 280 -999
2006-02-23 07:46:07 51°13.599 2°56.094 125.5 -999 220 -999
2006-02-23 07:46:12 51°13.599 2°56.094 125.5 -999 270 -999
2006-02-23 07:46:17 51°13.599 2°56.094 125.5 -999 169 -999
2006-02-23 07:46:22 51°13.599 2°56.094 125.5 -999 192 -999
2006-02-23 07:46:27 51°13.599 2°56.094 125.5 -999 78 -999
2006-02-23 07:46:32 51°13.599 2°56.094 125.5 -999 93 -999
2006-02-23 07:46:37 51°13.599 2°56.094 125.5 -999 55 -999
2006-02-23 07:46:42 51°13.599 2°56.094 125.5 -999 155 -999
2006-02-23 07:46:47 51°13.599 2°56.094 125.5 -999 101 -999
2006-02-23 07:46:52 51°13.599 2°56.094 125.6 -999 144 -999
2006-02-23 07:46:57 51°13.599 2°56.094 125.6 -999 125 -999
2006-02-23 07:47:02 51°13.599 2°56.094 125.7 -999 256 -999
2006-02-23 07:47:07 51°13.599 2°56.094 125.8 -999 234 -999
2006-02-23 07:47:12 51°13.599 2°56.094 125.8 -999 331 -999
2006-02-23 07:47:17 51°13.599 2°56.094 125.9 -999 245 -999
2006-02-23 07:47:22 51°13.599 2°56.094 126 -999 318 -999
2006-02-23 07:47:27 51°13.599 2°56.094 126 -999 241 -999
2006-02-23 07:47:32 51°13.599 2°56.094 126 -999 123 -999
2006-02-23 07:47:37 51°13.599 2°56.094 126 -999 121 -999
2006-02-23 07:47:43 51°13.599 2°56.093 125.9 -999 226 -999
2006-02-23 07:47:47 51°13.598 2°56.093 125.9 -999 302 -999
2006-02-23 07:47:52 51°13.598 2°56.093 125.9 -999 311 -999
2006-02-23 07:47:57 51°13.598 2°56.093 125.9 -999 306 -999
2006-02-23 07:48:03 51°13.598 2°56.093 125.9 -999 236 -999
2006-02-23 07:48:07 51°13.598 2°56.093 125.9 -999 218 -999
2006-02-23 07:48:12 51°13.598 2°56.093 125.9 -999 207 -999
2006-02-23 07:48:17 51°13.599 2°56.093 125.9 -999 30 -999
2006-02-23 07:48:23 51°13.599 2°56.093 125.9 -999 50 -999
2006-02-23 07:48:27 51°13.599 2°56.094 125.9 -999 162 -999
2006-02-23 07:48:32 51°13.599 2°56.094 125.8 -999 49 -999
2006-02-23 07:48:37 51°13.599 2°56.094 125.7 -999 174 -999
2006-02-23 07:48:42 51°13.598 2°56.093 125.7 -999 128 -999
2006-02-23 07:48:47 51°13.597 2°56.093 125.7 -999 23 -999
2006-02-23 07:48:52 51°13.597 2°56.093 125.7 -999 282 -999
2006-02-23 07:48:57 51°13.597 2°56.093 125.7 -999 -999 -999
2006-02-23 07:49:02 51°13.597 2°56.093 125.7 -999 1 -999
2006-02-23 07:49:07 51°13.597 2°56.093 125.7 -999 154 -999
2006-02-23 07:49:12 51°13.597 2°56.093 125.8 -999 141 -999
2006-02-23 07:49:17 51°13.598 2°56.093 125.8 -999 39 -999
2006-02-23 07:49:22 51°13.598 2°56.092 125.8 -999 175 -999
2006-02-23 07:49:27 51°13.597 2°56.092 125.8 -999 219 -999
2006-02-23 07:49:33 51°13.597 2°56.092 125.8 -999 30 -999
2006-02-23 07:49:37 51°13.597 2°56.092 125.8 -999 91 -999
2006-02-23 07:49:42 51°13.597 2°56.092 125.8 -999 78 -999
2006-02-23 07:49:47 51°13.597 2°56.092 125.8 -999 304 -999
2006-02-23 07:49:52 51°13.597 2°56.092 125.8 -999 322 -999
2006-02-23 07:49:57 51°13.597 2°56.092 125.8 -999 277 -999
2006-02-23 07:50:03 51°13.597 2°56.092 125.9 -999 303 -999
2006-02-23 07:50:07 51°13.597 2°56.092 125.9 -999 339 -999
2006-02-23 07:50:12 51°13.597 2°56.092 125.9 -999 12 -999
2006-02-23 07:50:17 51°13.597 2°56.092 125.9 -999 140 -999
2006-02-23 07:50:23 51°13.597 2°56.092 125.9 -999 97 -999
2006-02-23 07:50:27 51°13.597 2°56.092 125.7 -999 102 -999
2006-02-23 07:50:32 51°13.597 2°56.092 125.7 -999 213 -999
2006-02-23 07:50:37 51°13.597 2°56.092 125.7 -999 255 -999
2006-02-23 07:50:42 51°13.597 2°56.092 125.8 -999 274 -999
2006-02-23 07:50:47 51°13.597 2°56.092 125.9 -999 194 -999
2006-02-23 07:50:52 51°13.597 2°56.092 125.9 -999 80 -999
2006-02-23 07:50:57 51°13.597 2°56.092 125.9 -999 206 -999
2006-02-23 07:51:02 51°13.597 2°56.092 126.1 -999 71 -999
2006-02-23 07:51:07 51°13.597 2°56.092 126.1 -999 201 -999
2006-02-23 07:51:12 51°13.597 2°56.092 126.1 -999 124 -999
2006-02-23 07:51:17 51°13.597 2°56.092 126 -999 156 -999
2006-02-23 07:51:22 51°13.597 2°56.092 126 -999 88 -999
2006-02-23 07:51:27 51°13.597 2°56.092 125.9 -999 160 -999
2006-02-23 07:51:32 51°13.597 2°56.092 125.9 -999 182 -999
2006-02-23 07:51:37 51°13.597 2°56.092 125.9 -999 66 -999
2006-02-23 07:51:42 51°13.597 2°56.092 126.1 -999 157 -999
2006-02-23 07:51:47 51°13.597 2°56.092 126.1 -999 142 -999
2006-02-23 07:51:53 51°13.597 2°56.093 126.2 -999 133 -999
2006-02-23 07:51:57 51°13.597 2°56.093 126.4 -999 101 -999
2006-02-23 07:52:03 51°13.597 2°56.093 126.5 -999 135 -999
2006-02-23 07:52:07 51°13.597 2°56.093 126.6 -999 102 -999
2006-02-23 07:52:12 51°13.597 2°56.093 126.7 -999 182 -999
2006-02-23 07:52:17 51°13.597 2°56.093 126.8 -999 47 -999
2006-02-23 07:52:23 51°13.597 2°56.093 126.8 -999 144 -999
2006-02-23 07:52:27 51°13.597 2°56.093 126.9 -999 42 -999
2006-02-23 07:52:32 51°13.597 2°56.093 126.9 -999 357 -999
2006-02-23 07:52:37 51°13.597 2°56.093 126.9 -999 298 -999
2006-02-23 07:52:42 51°13.597 2°56.093 126.9 -999 284 -999
2006-02-23 07:52:47 51°13.597 2°56.093 126.9 -999 288 -999
2006-02-23 07:52:52 51°13.597 2°56.093 126.9 -999 296 -999
2006-02-23 07:52:57 51°13.597 2°56.093 127 -999 318 -999
2006-02-23 07:53:03 51°13.597 2°56.093 126.8 -999 292 -999
2006-02-23 07:53:07 51°13.597 2°56.093 126.7 -999 311 -999
2006-02-23 07:53:12 51°13.597 2°56.093 126.5 -999 271 -999
2006-02-23 07:53:17 51°13.597 2°56.093 126.4 -999 334 -999
2006-02-23 07:53:22 51°13.597 2°56.093 126.3 -999 335 -999
2006-02-23 07:53:27 51°13.597 2°56.093 126.2 -999 306 -999
2006-02-23 07:53:32 51°13.598 2°56.093 126.1 -999 336 -999
2006-02-23 07:53:37 51°13.598 2°56.093 126.1 -999 307 -999
2006-02-23 07:53:42 51°13.598 2°56.093 126 -999 333 -999
2006-02-23 07:53:47 51°13.598 2°56.093 126 -999 285 -999
2006-02-23 07:53:52 51°13.598 2°56.093 125.9 -999 330 -999
2006-02-23 07:53:57 51°13.598 2°56.093 125.9 -999 281 -999
2006-02-23 07:54:02 51°13.598 2°56.093 125.7 -999 68 -999
2006-02-23 07:54:07 51°13.598 2°56.093 125.7 -999 181 -999
2006-02-23 07:54:12 51°13.598 2°56.093 125.6 -999 63 -999
2006-02-23 07:54:17 51°13.598 2°56.093 125.6 -999 215 -999
2006-02-23 07:54:23 51°13.598 2°56.093 125.6 -999 69 -999
2006-02-23 07:54:27 51°13.598 2°56.093 125.7 -999 190 -999
2006-02-23 07:54:32 51°13.598 2°56.093 125.8 -999 31 -999
2006-02-23 07:54:37 51°13.598 2°56.093 125.9 -999 133 -999
2006-02-23 07:54:43 51°13.598 2°56.093 126 -999 111 -999
2006-02-23 07:54:47 51°13.598 2°56.093 126 -999 172 -999
2006-02-23 07:54:52 51°13.598 2°56.093 126 -999 115 -999
2006-02-23 07:54:57 51°13.598 2°56.093 126 -999 139 -999
2006-02-23 07:55:03 51°13.598 2°56.093 126 -999 127 -999
2006-02-23 07:55:07 51°13.598 2°56.093 126.1 -999 153 -999
2006-02-23 07:55:12 51°13.597 2°56.093 126.2 -999 143 -999
2006-02-23 07:55:17 51°13.597 2°56.094 126.4 -999 140 -999
2006-02-23 07:55:22 51°13.597 2°56.094 126.5 -999 125 -999
2006-02-23 07:55:27 51°13.597 2°56.094 126.6 -999 107 -999
2006-02-23 07:55:32 51°13.597 2°56.094 126.7 -999 129 -999
2006-02-23 07:55:37 51°13.597 2°56.094 126.8 -999 125 -999
2006-02-23 07:55:42 51°13.597 2°56.094 126.9 -999 195 -999
2006-02-23 07:55:47 51°13.597 2°56.094 127.1 -999 175 -999
2006-02-23 07:55:52 51°13.597 2°56.094 127.3 -999 229 -999
2006-02-23 07:55:57 51°13.597 2°56.094 127.3 -999 244 -999
2006-02-23 07:56:02 51°13.597 2°56.094 127.3 -999 239 -999
2006-02-23 07:56:07 51°13.598 2°56.094 127.3 -999 3 -999
2006-02-23 07:56:12 51°13.598 2°56.094 127.2 -999 274 -999
2006-02-23 07:56:17 51°13.598 2°56.094 127.2 -999 305 -999
2006-02-23 07:56:22 51°13.598 2°56.094 127.1 -999 344 -999
2006-02-23 07:56:27 51°13.598 2°56.094 127.1 -999 356 -999
2006-02-23 07:56:32 51°13.598 2°56.094 127.1 -999 286 -999
2006-02-23 07:56:37 51°13.598 2°56.094 127.1 -999 282 -999
2006-02-23 07:56:43 51°13.598 2°56.094 127 -999 307 -999
2006-02-23 07:56:47 51°13.598 2°56.094 127 -999 46 -999
2006-02-23 07:56:52 51°13.598 2°56.094 127 -999 344 -999
2006-02-23 07:56:57 51°13.598 2°56.094 127 -999 232 -999
2006-02-23 07:57:03 51°13.598 2°56.094 126.9 -999 336 -999
2006-02-23 07:57:07 51°13.598 2°56.094 126.9 -999 316 -999
2006-02-23 07:57:12 51°13.598 2°56.094 126.9 -999 321 -999
2006-02-23 07:57:17 51°13.598 2°56.094 126.9 -999 259 -999
2006-02-23 07:57:23 51°13.598 2°56.094 126.9 -999 5 -999
2006-02-23 07:57:27 51°13.598 2°56.094 126.9 -999 343 -999
2006-02-23 07:57:32 51°13.598 2°56.094 126.8 -999 14 -999
2006-02-23 07:57:37 51°13.598 2°56.094 126.7 -999 9 -999
2006-02-23 07:57:42 51°13.597 2°56.094 126.6 -999 9 -999
2006-02-23 07:57:47 51°13.597 2°56.094 126.5 -999 318 -999
2006-02-23 07:57:52 51°13.597 2°56.094 126.5 -999 206 -999
2006-02-23 07:57:57 51°13.597 2°56.094 126.5 -999 10 -999
2006-02-23 07:58:02 51°13.597 2°56.094 126.4 -999 356 -999
2006-02-23 07:58:07 51°13.597 2°56.094 126.4 -999 348 -999
2006-02-23 07:58:12 51°13.597 2°56.094 126.4 -999 289 -999
2006-02-23 07:58:17 51°13.597 2°56.094 126.4 -999 11 -999
2006-02-23 07:58:22 51°13.597 2°56.094 126.4 -999 45 -999
2006-02-23 07:58:27 51°13.597 2°56.094 126.4 -999 57 -999
2006-02-23 07:58:32 51°13.598 2°56.094 126.4 -999 73 -999
2006-02-23 07:58:37 51°13.598 2°56.094 126.4 -999 37 -999
2006-02-23 07:58:43 51°13.598 2°56.094 126.4 -999 93 -999
2006-02-23 07:58:47 51°13.598 2°56.094 126.4 -999 356 -999
2006-02-23 07:58:52 51°13.598 2°56.094 126.4 -999 239 -999
2006-02-23 07:58:57 51°13.598 2°56.094 126.4 -999 221 -999
2006-02-23 07:59:03 51°13.598 2°56.094 126.4 -999 348 -999
2006-02-23 07:59:07 51°13.598 2°56.094 126.4 -999 245 -999
2006-02-23 07:59:12 51°13.597 2°56.094 126.5 -999 208 -999
2006-02-23 07:59:17 51°13.597 2°56.095 126.5 -999 89 -999
2006-02-23 07:59:23 51°13.597 2°56.095 126.5 -999 52 -999
2006-02-23 07:59:27 51°13.597 2°56.095 126.5 -999 85 -999
2006-02-23 07:59:32 51°13.597 2°56.095 126.5 -999 111 -999
2006-02-23 07:59:37 51°13.598 2°56.095 126.5 -999 114 -999
2006-02-23 07:59:42 51°13.598 2°56.095 126.5 -999 260 -999
2006-02-23 07:59:47 51°13.598 2°56.095 126.5 -999 296 -999
2006-02-23 07:59:52 51°13.598 2°56.095 126.5 -999 300 -999
2006-02-23 07:59:57 51°13.598 2°56.094 126.5 -999 326 -999
2006-02-23 08:00:02 51°13.598 2°56.094 126.5 -999 272 -999
2006-02-23 08:00:07 51°13.598 2°56.094 126.5 -999 356 -999
2006-02-23 08:00:12 51°13.598 2°56.094 126.5 -999 318 -999
2006-02-23 08:00:17 51°13.598 2°56.094 126.5 -999 30 -999
2006-02-23 08:00:22 51°13.598 2°56.094 126.4 -999 230 -999
2006-02-23 08:00:27 51°13.598 2°56.094 126.2 -999 74 -999
2006-02-23 08:00:32 51°13.598 2°56.094 126.2 -999 169 -999
2006-02-23 08:00:37 51°13.598 2°56.094 126.2 -999 52 -999
2006-02-23 08:00:43 51°13.598 2°56.094 126.2 -999 305 -999
2006-02-23 08:00:47 51°13.598 2°56.094 126.2 -999 323 -999
2006-02-23 08:00:53 51°13.598 2°56.094 126.2 -999 251 -999
2006-02-23 08:00:57 51°13.598 2°56.094 126.2 -999 281 -999
2006-02-23 08:01:03 51°13.598 2°56.094 126.2 -999 285 -999
2006-02-23 08:01:07 51°13.598 2°56.094 126.2 -999 223 -999
2006-02-23 08:01:12 51°13.598 2°56.094 126.2 -999 283 -999
2006-02-23 08:01:17 51°13.598 2°56.094 126.2 -999 307 -999
2006-02-23 08:01:23 51°13.598 2°56.094 126.2 -999 347 -999
2006-02-23 08:01:27 51°13.598 2°56.094 126.1 -999 35 -999
2006-02-23 08:01:32 51°13.598 2°56.094 126.1 -999 187 -999
2006-02-23 08:01:37 51°13.598 2°56.094 126.1 -999 125 -999
2006-02-23 08:01:43 51°13.598 2°56.094 126.1 -999 202 -999
2006-02-23 08:01:47 51°13.598 2°56.094 126.1 -999 273 -999
2006-02-23 08:01:52 51°13.598 2°56.094 126.1 -999 194 -999
2006-02-23 08:01:57 51°13.598 2°56.094 126.1 -999 242 -999
2006-02-23 08:02:02 51°13.598 2°56.094 126.1 -999 322 -999
2006-02-23 08:02:07 51°13.598 2°56.094 126.1 -999 310 -999
2006-02-23 08:02:12 51°13.598 2°56.094 126.1 -999 171 -999
2006-02-23 08:02:17 51°13.598 2°56.094 126.1 -999 186 -999
2006-02-23 08:02:22 51°13.598 2°56.094 126.1 -999 83 -999
2006-02-23 08:02:27 51°13.598 2°56.094 126.1 -999 139 -999
2006-02-23 08:02:32 51°13.598 2°56.094 126.1 -999 182 -999
2006-02-23 08:02:37 51°13.598 2°56.094 126 -999 204 -999
2006-02-23 08:02:42 51°13.598 2°56.094 126 -999 261 -999
2006-02-23 08:02:47 51°13.598 2°56.093 126 -999 316 -999
2006-02-23 08:02:52 51°13.597 2°56.093 126 -999 218 -999
2006-02-23 08:02:57 51°13.597 2°56.094 126.1 -999 1 -999
2006-02-23 08:03:03 51°13.597 2°56.094 126.1 -999 344 -999
2006-02-23 08:03:07 51°13.597 2°56.094 126.1 -999 198 -999
2006-02-23 08:03:12 51°13.598 2°56.094 126.2 -999 246 -999
2006-02-23 08:03:17 51°13.598 2°56.094 126.2 -999 198 -999
2006-02-23 08:03:23 51°13.598 2°56.094 126.2 -999 186 -999
2006-02-23 08:03:27 51°13.598 2°56.094 126.2 -999 157 -999
2006-02-23 08:03:32 51°13.598 2°56.094 126.2 -999 149 -999
2006-02-23 08:03:37 51°13.598 2°56.094 126.1 -999 264 -999
2006-02-23 08:03:43 51°13.598 2°56.094 126.1 -999 289 -999
2006-02-23 08:03:47 51°13.597 2°56.094 126.1 -999 201 -999
2006-02-23 08:03:52 51°13.597 2°56.094 126.1 -999 -999 -999
2006-02-23 08:03:57 51°13.597 2°56.094 126.1 -999 191 -999
2006-02-23 08:04:03 51°13.597 2°56.094 126.2 -999 217 -999
2006-02-23 08:04:07 51°13.597 2°56.094 126.2 -999 334 -999
2006-02-23 08:04:12 51°13.597 2°56.094 126.2 -999 296 -999
2006-02-23 08:04:17 51°13.597 2°56.093 126.2 -999 280 -999
2006-02-23 08:04:22 51°13.597 2°56.093 126.2 -999 229 -999
2006-02-23 08:04:27 51°13.597 2°56.093 126.2 -999 -999 -999
2006-02-23 08:04:32 51°13.597 2°56.093 126.3 -999 20 -999
2006-02-23 08:04:37 51°13.597 2°56.093 126.3 -999 205 -999
2006-02-23 08:04:42 51°13.597 2°56.093 126.3 -999 189 -999
2006-02-23 08:04:47 51°13.597 2°56.093 126.4 -999 223 -999
2006-02-23 08:04:52 51°13.597 2°56.093 126.4 -999 178 -999
2006-02-23 08:04:57 51°13.597 2°56.093 126.4 -999 222 -999
2006-02-23 08:05:02 51°13.597 2°56.093 126.4 -999 320 -999
2006-02-23 08:05:07 51°13.597 2°56.093 126.4 -999 330 -999
2006-02-23 08:05:12 51°13.597 2°56.093 126.4 -999 274 -999
2006-02-23 08:05:17 51°13.597 2°56.094 126.4 -999 280 -999
2006-02-23 08:05:22 51°13.597 2°56.094 126.4 -999 100 -999
2006-02-23 08:05:27 51°13.597 2°56.094 126.4 -999 334 -999
2006-02-23 08:05:32 51°13.597 2°56.094 126.4 -999 272 -999
2006-02-23 08:05:37 51°13.597 2°56.094 126.4 -999 322 -999
2006-02-23 08:05:43 51°13.597 2°56.094 126.4 -999 160 -999
2006-02-23 08:05:47 51°13.597 2°56.094 126.4 -999 241 -999
2006-02-23 08:05:52 51°13.597 2°56.094 126.4 -999 333 -999
2006-02-23 08:05:57 51°13.597 2°56.094 126.4 -999 192 -999
2006-02-23 08:06:03 51°13.597 2°56.094 126.4 -999 309 -999
2006-02-23 08:06:07 51°13.597 2°56.094 126.4 -999 232 -999
2006-02-23 08:06:12 51°13.597 2°56.094 126.4 -999 231 -999
2006-02-23 08:06:17 51°13.597 2°56.095 126.4 -999 247 -999
2006-02-23 08:06:23 51°13.597 2°56.095 126.4 -999 205 -999
2006-02-23 08:06:27 51°13.597 2°56.095 126.4 -999 191 -999
2006-02-23 08:06:32 51°13.597 2°56.095 126.4 -999 165 -999
2006-02-23 08:06:37 51°13.597 2°56.095 126.4 -999 153 -999
2006-02-23 08:06:42 51°13.597 2°56.095 126.4 -999 205 -999
2006-02-23 08:06:47 51°13.597 2°56.095 126.4 -999 321 -999
2006-02-23 08:06:52 51°13.597 2°56.095 126.4 -999 274 -999
2006-02-23 08:06:57 51°13.597 2°56.095 126.4 -999 271 -999
2006-02-23 08:07:02 51°13.597 2°56.095 126.5 -999 269 -999
2006-02-23 08:07:07 51°13.597 2°56.095 126.5 -999 204 -999
2006-02-23 08:07:12 51°13.597 2°56.095 126.5 -999 324 -999
2006-02-23 08:07:17 51°13.597 2°56.095 126.5 -999 305 -999
2006-02-23 08:07:23 51°13.598 2°56.095 126.5 -999 317 -999
2006-02-23 08:07:27 51°13.598 2°56.095 126.4 -999 331 -999
2006-02-23 08:07:32 51°13.598 2°56.095 126.4 -999 353 -999
2006-02-23 08:07:37 51°13.598 2°56.095 126.4 -999 6 -999
2006-02-23 08:07:42 51°13.598 2°56.095 126.4 -999 139 -999
2006-02-23 08:07:47 51°13.598 2°56.095 126.3 -999 227 -999
2006-02-23 08:07:52 51°13.598 2°56.095 126.3 -999 301 -999
2006-02-23 08:07:57 51°13.598 2°56.095 126.3 -999 304 -999
2006-02-23 08:08:03 51°13.598 2°56.095 126.3 -999 278 -999
2006-02-23 08:08:07 51°13.598 2°56.095 126.3 -999 299 -999
2006-02-23 08:08:12 51°13.598 2°56.095 126.3 -999 298 -999
2006-02-23 08:08:17 51°13.598 2°56.095 126.3 -999 325 -999
2006-02-23 08:08:23 51°13.598 2°56.095 126.2 -999 323 -999
2006-02-23 08:08:27 51°13.598 2°56.095 126.2 -999 323 -999
2006-02-23 08:08:32 51°13.598 2°56.095 126.1 -999 283 -999
2006-02-23 08:08:37 51°13.597 2°56.095 125.9 -999 280 -999
2006-02-23 08:08:43 51°13.597 2°56.095 125.9 -999 293 -999
2006-02-23 08:08:47 51°13.597 2°56.095 125.8 -999 307 -999
2006-02-23 08:08:52 51°13.597 2°56.095 125.8 -999 316 -999
2006-02-23 08:08:57 51°13.597 2°56.095 125.7 -999 17 -999
2006-02-23 08:09:03 51°13.597 2°56.095 125.7 -999 235 -999
2006-02-23 08:09:07 51°13.597 2°56.095 125.7 -999 281 -999
2006-02-23 08:09:12 51°13.597 2°56.095 125.7 -999 229 -999
2006-02-23 08:09:17 51°13.597 2°56.095 125.7 -999 325 -999
2006-02-23 08:09:22 51°13.597 2°56.095 125.7 -999 282 -999
2006-02-23 08:09:27 51°13.597 2°56.095 125.7 -999 334 -999
2006-02-23 08:09:32 51°13.597 2°56.095 125.7 -999 319 -999
2006-02-23 08:09:37 51°13.597 2°56.095 125.7 -999 283 -999
2006-02-23 08:09:42 51°13.597 2°56.095 125.7 -999 351 -999
2006-02-23 08:09:47 51°13.597 2°56.095 125.7 -999 234 -999
2006-02-23 08:09:52 51°13.597 2°56.095 125.7 -999 131 -999
2006-02-23 08:09:57 51°13.597 2°56.095 125.7 -999 219 -999
2006-02-23 08:10:03 51°13.597 2°56.095 125.6 -999 256 -999
2006-02-23 08:10:07 51°13.597 2°56.095 125.6 -999 303 -999
2006-02-23 08:10:12 51°13.597 2°56.095 125.6 -999 225 -999
2006-02-23 08:10:17 51°13.597 2°56.095 125.6 -999 276 -999
2006-02-23 08:10:23 51°13.597 2°56.095 125.6 -999 7 -999
2006-02-23 08:10:27 51°13.597 2°56.095 125.6 -999 182 -999
2006-02-23 08:10:32 51°13.597 2°56.095 125.6 -999 180 -999
2006-02-23 08:10:37 51°13.597 2°56.095 125.6 -999 161 -999
2006-02-23 08:10:43 51°13.597 2°56.095 125.6 -999 215 -999
2006-02-23 08:10:47 51°13.597 2°56.095 125.6 -999 347 -999
2006-02-23 08:10:52 51°13.597 2°56.095 125.6 -999 265 -999
2006-02-23 08:10:57 51°13.596 2°56.095 125.6 -999 1 -999
2006-02-23 08:11:03 51°13.596 2°56.095 125.6 -999 294 -999
2006-02-23 08:11:07 51°13.596 2°56.095 125.6 -999 321 -999
2006-02-23 08:11:12 51°13.596 2°56.095 125.6 -999 318 -999
2006-02-23 08:11:17 51°13.597 2°56.095 125.6 -999 292 -999
2006-02-23 08:11:22 51°13.597 2°56.095 125.6 -999 257 -999
2006-02-23 08:11:27 51°13.597 2°56.095 125.7 -999 168 -999
2006-02-23 08:11:32 51°13.597 2°56.095 125.7 -999 128 -999
2006-02-23 08:11:37 51°13.596 2°56.095 125.7 -999 100 -999
2006-02-23 08:11:42 51°13.596 2°56.095 125.7 -999 177 -999
2006-02-23 08:11:47 51°13.596 2°56.095 125.7 -999 90 -999
2006-02-23 08:11:52 51°13.597 2°56.095 125.7 -999 197 -999
2006-02-23 08:11:57 51°13.597 2°56.095 125.7 -999 293 -999
2006-02-23 08:12:03 51°13.597 2°56.095 125.7 -999 196 -999
2006-02-23 08:12:07 51°13.597 2°56.095 125.7 -999 228 -999
2006-02-23 08:12:12 51°13.597 2°56.095 125.7 -999 355 -999
2006-02-23 08:12:17 51°13.597 2°56.095 125.8 -999 238 -999
2006-02-23 08:12:22 51°13.597 2°56.095 125.8 -999 110 -999
2006-02-23 08:12:27 51°13.597 2°56.095 125.8 -999 202 -999
2006-02-23 08:12:32 51°13.597 2°56.095 125.8 -999 227 -999
2006-02-23 08:12:37 51°13.597 2°56.095 125.8 -999 157 -999
2006-02-23 08:12:43 51°13.597 2°56.095 125.8 -999 212 -999
2006-02-23 08:12:47 51°13.597 2°56.095 125.8 -999 262 -999
2006-02-23 08:12:52 51°13.597 2°56.095 125.8 -999 19 -999
2006-02-23 08:12:57 51°13.597 2°56.095 125.8 -999 262 -999
2006-02-23 08:13:03 51°13.597 2°56.095 125.8 -999 211 -999
2006-02-23 08:13:07 51°13.597 2°56.095 125.8 -999 314 -999
2006-02-23 08:13:12 51°13.597 2°56.095 125.9 -999 180 -999
2006-02-23 08:13:17 51°13.597 2°56.095 125.9 -999 333 -999
2006-02-23 08:13:22 51°13.597 2°56.095 125.9 -999 260 -999
2006-02-23 08:13:27 51°13.597 2°56.095 125.9 -999 132 -999
2006-02-23 08:13:32 51°13.597 2°56.095 125.9 -999 63 -999
2006-02-23 08:13:37 51°13.598 2°56.095 125.9 -999 255 -999
2006-02-23 08:13:42 51°13.598 2°56.095 125.9 -999 13 -999
2006-02-23 08:13:47 51°13.598 2°56.095 125.8 -999 324 -999
2006-02-23 08:13:52 51°13.598 2°56.095 125.8 -999 319 -999
2006-02-23 08:13:57 51°13.597 2°56.095 125.8 -999 329 -999
2006-02-23 08:14:02 51°13.597 2°56.095 125.8 -999 236 -999
2006-02-23 08:14:07 51°13.597 2°56.095 125.8 -999 234 -999
2006-02-23 08:14:12 51°13.597 2°56.095 125.9 -999 353 -999
2006-02-23 08:14:17 51°13.597 2°56.095 125.9 -999 253 -999
2006-02-23 08:14:22 51°13.597 2°56.095 126 -999 50 -999
2006-02-23 08:14:27 51°13.597 2°56.095 126 -999 164 -999
2006-02-23 08:14:32 51°13.598 2°56.095 126 -999 223 -999
2006-02-23 08:14:37 51°13.598 2°56.095 125.9 -999 224 -999
2006-02-23 08:14:43 51°13.598 2°56.095 125.9 -999 224 -999
2006-02-23 08:14:47 51°13.598 2°56.095 125.9 -999 10 -999
2006-02-23 08:14:52 51°13.598 2°56.095 125.9 -999 265 -999
2006-02-23 08:14:57 51°13.598 2°56.095 125.9 -999 263 -999
2006-02-23 08:15:03 51°13.598 2°56.095 125.9 -999 335 -999
2006-02-23 08:15:07 51°13.598 2°56.094 125.9 -999 312 -999
2006-02-23 08:15:12 51°13.598 2°56.094 125.9 -999 308 -999
2006-02-23 08:15:17 51°13.598 2°56.094 125.9 -999 304 -999
2006-02-23 08:15:23 51°13.598 2°56.094 125.9 -999 287 -999
2006-02-23 08:15:27 51°13.598 2°56.094 125.9 -999 134 -999
2006-02-23 08:15:32 51°13.598 2°56.094 125.9 -999 170 -999
2006-02-23 08:15:37 51°13.598 2°56.094 125.9 -999 167 -999
2006-02-23 08:15:43 51°13.598 2°56.094 125.9 -999 137 -999
2006-02-23 08:15:47 51°13.598 2°56.094 125.9 -999 126 -999
2006-02-23 08:15:52 51°13.598 2°56.095 125.9 -999 29 -999
2006-02-23 08:15:57 51°13.598 2°56.095 125.9 -999 142 -999
2006-02-23 08:16:02 51°13.598 2°56.095 125.9 -999 196 -999
2006-02-23 08:16:07 51°13.598 2°56.095 126 -999 242 -999
2006-02-23 08:16:12 51°13.598 2°56.095 126.1 -999 340 -999
2006-02-23 08:16:17 51°13.598 2°56.094 126.1 -999 213 -999
2006-02-23 08:16:22 51°13.598 2°56.094 126.2 -999 194 -999
2006-02-23 08:16:27 51°13.598 2°56.094 126.2 -999 193 -999
2006-02-23 08:16:32 51°13.598 2°56.094 126.2 -999 281 -999
2006-02-23 08:16:37 51°13.598 2°56.094 126.2 -999 352 -999
2006-02-23 08:16:43 51°13.598 2°56.094 126.2 -999 6 -999
2006-02-23 08:16:47 51°13.598 2°56.094 126.2 -999 254 -999
2006-02-23 08:16:52 51°13.598 2°56.094 126.2 -999 340 -999
2006-02-23 08:16:57 51°13.598 2°56.094 126.2 -999 278 -999
2006-02-23 08:17:03 51°13.598 2°56.094 126.2 -999 124 -999
2006-02-23 08:17:07 51°13.598 2°56.094 126.2 -999 145 -999
2006-02-23 08:17:12 51°13.598 2°56.094 126.2 -999 139 -999
2006-02-23 08:17:17 51°13.598 2°56.094 126.2 -999 126 -999
2006-02-23 08:17:23 51°13.598 2°56.094 126.2 -999 155 -999
2006-02-23 08:17:27 51°13.598 2°56.094 126.2 -999 293 -999
2006-02-23 08:17:32 51°13.598 2°56.094 126.2 0.1 126 -999
2006-02-23 08:17:37 51°13.598 2°56.094 126.2 -999 134 -999
2006-02-23 08:17:43 51°13.598 2°56.094 126.2 -999 286 -999
2006-02-23 08:17:47 51°13.598 2°56.094 126.2 -999 276 -999
2006-02-23 08:17:52 51°13.598 2°56.094 126.2 -999 313 -999
2006-02-23 08:17:57 51°13.598 2°56.094 126.2 -999 246 -999
2006-02-23 08:18:02 51°13.599 2°56.094 126.2 -999 299 -999
2006-02-23 08:18:07 51°13.599 2°56.094 126.2 -999 270 -999
2006-02-23 08:18:12 51°13.599 2°56.094 126.2 -999 330 -999
2006-02-23 08:18:17 51°13.599 2°56.094 126.2 -999 250 -999
2006-02-23 08:18:22 51°13.599 2°56.094 126.2 -999 62 -999
2006-02-23 08:18:27 51°13.599 2°56.094 126.1 -999 336 -999
2006-02-23 08:18:32 51°13.599 2°56.094 126.1 -999 288 -999
2006-02-23 08:18:37 51°13.598 2°56.094 126.1 -999 296 -999
2006-02-23 08:18:42 51°13.598 2°56.094 126.1 -999 313 -999
2006-02-23 08:18:47 51°13.598 2°56.094 126.1 -999 324 -999
2006-02-23 08:18:52 51°13.598 2°56.094 126.1 -999 242 -999
2006-02-23 08:18:57 51°13.598 2°56.094 126.1 -999 135 -999
2006-02-23 08:19:03 51°13.598 2°56.094 126.2 -999 169 -999
2006-02-23 08:19:07 51°13.598 2°56.094 126.2 -999 139 -999
2006-02-23 08:19:12 51°13.598 2°56.094 126.2 -999 140 -999
2006-02-23 08:19:17 51°13.598 2°56.094 126.2 -999 308 -999
2006-02-23 08:19:23 51°13.598 2°56.094 126.3 -999 150 -999
2006-02-23 08:19:27 51°13.598 2°56.094 126.3 -999 130 -999
2006-02-23 08:19:32 51°13.599 2°56.094 126.3 0.1 147 -999
2006-02-23 08:19:37 51°13.599 2°56.094 126.3 -999 144 -999
2006-02-23 08:19:43 51°13.599 2°56.094 126.2 -999 77 -999
2006-02-23 08:19:47 51°13.599 2°56.094 126.2 0.1 125 -999
2006-02-23 08:19:52 51°13.599 2°56.094 126.2 -999 148 -999
2006-02-23 08:19:57 51°13.599 2°56.094 126.3 -999 163 -999
2006-02-23 08:20:03 51°13.599 2°56.094 126.4 -999 288 -999
2006-02-23 08:20:07 51°13.599 2°56.094 126.4 -999 261 -999
2006-02-23 08:20:12 51°13.599 2°56.095 126.5 -999 276 -999
2006-02-23 08:20:17 51°13.599 2°56.095 126.5 -999 137 -999
2006-02-23 08:20:22 51°13.599 2°56.095 126.5 -999 355 -999
2006-02-23 08:20:27 51°13.599 2°56.095 126.5 -999 321 -999
2006-02-23 08:20:32 51°13.599 2°56.095 126.5 -999 30 -999
2006-02-23 08:20:37 51°13.599 2°56.095 126.5 -999 158 -999
2006-02-23 08:20:42 51°13.599 2°56.095 126.5 -999 305 -999
2006-02-23 08:20:47 51°13.599 2°56.095 126.5 0.1 301 -999
2006-02-23 08:20:52 51°13.599 2°56.095 126.5 -999 48 -999
2006-02-23 08:20:57 51°13.599 2°56.095 126.5 -999 101 -999
2006-02-23 08:21:02 51°13.599 2°56.095 126.5 -999 157 -999
2006-02-23 08:21:07 51°13.599 2°56.095 126.4 -999 120 -999
2006-02-23 08:21:12 51°13.599 2°56.095 126.4 -999 262 -999
2006-02-23 08:21:17 51°13.599 2°56.095 126.3 -999 278 -999
2006-02-23 08:21:23 51°13.599 2°56.095 126.3 -999 296 -999
2006-02-23 08:21:27 51°13.599 2°56.095 126.2 -999 148 -999
2006-02-23 08:21:32 51°13.599 2°56.095 126.2 -999 264 -999
2006-02-23 08:21:37 51°13.599 2°56.095 126.2 -999 99 -999
2006-02-23 08:21:43 51°13.599 2°56.095 126.2 0.1 147 -999
2006-02-23 08:21:47 51°13.599 2°56.095 126.2 0.1 175 -999
2006-02-23 08:21:52 51°13.599 2°56.095 126.2 -999 303 -999
2006-02-23 08:21:57 51°13.599 2°56.095 126.2 -999 138 -999
2006-02-23 08:22:03 51°13.599 2°56.095 126.1 -999 118 -999
2006-02-23 08:22:07 51°13.599 2°56.095 126.1 -999 135 -999
2006-02-23 08:22:12 51°13.599 2°56.095 126.1 -999 308 -999
2006-02-23 08:22:17 51°13.599 2°56.094 126.1 -999 156 -999
2006-02-23 08:22:23 51°13.599 2°56.094 126.1 -999 291 -999
2006-02-23 08:22:27 51°13.599 2°56.094 126.1 -999 134 -999
2006-02-23 08:22:32 51°13.599 2°56.094 126.1 -999 307 -999
2006-02-23 08:22:37 51°13.599 2°56.094 126 -999 137 -999
2006-02-23 08:22:42 51°13.599 2°56.094 126 -999 153 -999
2006-02-23 08:22:47 51°13.599 2°56.095 126 -999 117 -999
2006-02-23 08:22:52 51°13.599 2°56.094 126 -999 192 -999
2006-02-23 08:22:57 51°13.599 2°56.094 126 -999 293 -999
2006-02-23 08:23:02 51°13.599 2°56.094 126 -999 164 -999
2006-02-23 08:23:07 51°13.599 2°56.094 126 -999 270 -999
2006-02-23 08:23:12 51°13.599 2°56.094 126 -999 160 -999
2006-02-23 08:23:17 51°13.599 2°56.094 126 -999 273 -999
2006-02-23 08:23:22 51°13.599 2°56.094 126 -999 310 -999
2006-02-23 08:23:27 51°13.599 2°56.094 126.1 -999 315 -999
2006-02-23 08:23:33 51°13.599 2°56.094 126.1 -999 155 -999
2006-02-23 08:23:37 51°13.599 2°56.094 126.1 -999 131 -999
2006-02-23 08:23:43 51°13.598 2°56.094 126.1 -999 149 -999
2006-02-23 08:23:47 51°13.598 2°56.094 126.1 -999 183 -999
2006-02-23 08:23:52 51°13.598 2°56.094 126.1 -999 124 -999
2006-02-23 08:23:57 51°13.598 2°56.094 126.1 -999 281 -999
2006-02-23 08:24:02 51°13.598 2°56.094 126.1 -999 123 -999
2006-02-23 08:24:07 51°13.598 2°56.094 126.1 -999 150 -999
2006-02-23 08:24:12 51°13.598 2°56.094 126.1 -999 168 -999
2006-02-23 08:24:17 51°13.598 2°56.094 126.1 -999 154 -999
2006-02-23 08:24:23 51°13.598 2°56.094 126.1 -999 224 -999
2006-02-23 08:24:27 51°13.598 2°56.094 126.1 -999 295 -999
2006-02-23 08:24:32 51°13.598 2°56.094 126.1 -999 157 -999
2006-02-23 08:24:37 51°13.598 2°56.094 126.2 -999 112 -999
2006-02-23 08:24:42 51°13.598 2°56.094 126.2 -999 327 -999
2006-02-23 08:24:47 51°13.598 2°56.094 126.2 -999 122 -999
2006-02-23 08:24:52 51°13.598 2°56.094 126.2 -999 315 -999
2006-02-23 08:24:57 51°13.598 2°56.094 126.2 -999 102 -999
2006-02-23 08:25:02 51°13.598 2°56.094 126.2 0.1 154 -999
2006-02-23 08:25:07 51°13.598 2°56.094 126.2 -999 128 -999
2006-02-23 08:25:12 51°13.598 2°56.094 126.2 -999 129 -999
2006-02-23 08:25:17 51°13.598 2°56.094 126.2 -999 175 -999
2006-02-23 08:25:22 51°13.598 2°56.094 126.2 -999 305 -999
2006-02-23 08:25:27 51°13.598 2°56.094 126.2 -999 292 -999
2006-02-23 08:25:32 51°13.597 2°56.094 126.2 -999 247 -999
2006-02-23 08:25:37 51°13.597 2°56.094 126.2 -999 142 -999
2006-02-23 08:25:42 51°13.597 2°56.094 126.2 -999 315 -999
2006-02-23 08:25:47 51°13.597 2°56.094 126.2 -999 131 -999
2006-02-23 08:25:53 51°13.597 2°56.094 126.2 -999 155 -999
2006-02-23 08:25:57 51°13.597 2°56.094 126.3 0.1 169 -999
2006-02-23 08:26:03 51°13.597 2°56.094 126.3 -999 139 -999
2006-02-23 08:26:07 51°13.597 2°56.094 126.3 -999 94 -999
2006-02-23 08:26:12 51°13.597 2°56.094 126.3 -999 91 -999
2006-02-23 08:26:17 51°13.597 2°56.094 126.2 -999 333 -999
2006-02-23 08:26:23 51°13.597 2°56.094 126.2 -999 327 -999
2006-02-23 08:26:27 51°13.597 2°56.094 126.2 -999 124 -999
2006-02-23 08:26:32 51°13.597 2°56.094 126.2 -999 284 -999
2006-02-23 08:26:37 51°13.597 2°56.094 126.2 -999 188 -999
2006-02-23 08:26:43 51°13.597 2°56.094 126.2 -999 327 -999
2006-02-23 08:26:47 51°13.597 2°56.094 126.3 -999 137 -999
2006-02-23 08:26:52 51°13.597 2°56.094 126.4 -999 150 -999
2006-02-23 08:26:57 51°13.597 2°56.094 126.4 -999 157 -999
2006-02-23 08:27:02 51°13.597 2°56.094 126.4 -999 320 -999
2006-02-23 08:27:07 51°13.597 2°56.094 126.4 -999 167 -999
2006-02-23 08:27:12 51°13.597 2°56.094 126.4 -999 283 -999
2006-02-23 08:27:17 51°13.597 2°56.094 126.4 -999 291 -999
2006-02-23 08:27:23 51°13.597 2°56.094 126.4 -999 162 -999
2006-02-23 08:27:27 51°13.597 2°56.094 126.4 -999 159 -999
2006-02-23 08:27:32 51°13.597 2°56.094 126.4 -999 159 -999
2006-02-23 08:27:37 51°13.597 2°56.094 126.4 0.1 147 -999
2006-02-23 08:27:43 51°13.597 2°56.094 126.4 -999 140 -999
2006-02-23 08:27:47 51°13.597 2°56.094 126.4 -999 134 -999
2006-02-23 08:27:53 51°13.597 2°56.094 126.4 -999 323 -999
2006-02-23 08:27:57 51°13.597 2°56.094 126.4 -999 176 -999
2006-02-23 08:28:02 51°13.597 2°56.094 126.4 -999 150 -999
2006-02-23 08:28:07 51°13.597 2°56.094 126.4 -999 284 -999
2006-02-23 08:28:13 51°13.597 2°56.094 126.4 -999 330 -999
2006-02-23 08:28:17 51°13.597 2°56.094 126.4 -999 314 -999
2006-02-23 08:28:23 51°13.596 2°56.094 126.5 -999 153 -999
2006-02-23 08:28:27 51°13.596 2°56.094 126.5 -999 256 -999
2006-02-23 08:28:32 51°13.596 2°56.095 126.5 -999 126 -999
2006-02-23 08:28:37 51°13.596 2°56.095 126.5 -999 147 -999
2006-02-23 08:28:43 51°13.597 2°56.095 126.5 -999 151 -999
2006-02-23 08:28:47 51°13.597 2°56.095 126.5 -999 140 -999
2006-02-23 08:28:52 51°13.597 2°56.095 126.5 -999 150 -999
2006-02-23 08:28:57 51°13.597 2°56.095 126.5 -999 333 -999
2006-02-23 08:29:03 51°13.596 2°56.095 126.5 -999 154 -999
2006-02-23 08:29:07 51°13.596 2°56.095 126.5 -999 138 -999
2006-02-23 08:29:12 51°13.596 2°56.095 126.5 -999 293 -999
2006-02-23 08:29:17 51°13.596 2°56.095 126.5 -999 294 -999
2006-02-23 08:29:22 51°13.596 2°56.095 126.6 -999 329 -999
2006-02-23 08:29:27 51°13.597 2°56.095 126.6 -999 308 -999
2006-02-23 08:29:32 51°13.597 2°56.096 126.6 -999 142 -999
2006-02-23 08:29:37 51°13.597 2°56.096 126.6 -999 128 -999
2006-02-23 08:29:42 51°13.597 2°56.096 126.6 -999 112 -999
2006-02-23 08:29:47 51°13.597 2°56.096 126.6 -999 184 -999
2006-02-23 08:29:52 51°13.597 2°56.096 126.6 -999 305 -999
2006-02-23 08:29:57 51°13.597 2°56.096 126.6 -999 32 -999
2006-02-23 08:30:02 51°13.597 2°56.096 126.6 -999 136 -999
2006-02-23 08:30:07 51°13.597 2°56.096 126.6 0.1 139 -999
2006-02-23 08:30:13 51°13.597 2°56.096 126.6 -999 154 -999
2006-02-23 08:30:17 51°13.597 2°56.096 126.6 -999 142 -999
2006-02-23 08:30:23 51°13.597 2°56.095 126.6 -999 131 -999
2006-02-23 08:30:27 51°13.597 2°56.095 126.6 -999 132 -999
2006-02-23 08:30:32 51°13.597 2°56.095 126.6 -999 315 -999
2006-02-23 08:30:37 51°13.597 2°56.095 126.6 0.1 326 -999
2006-02-23 08:30:42 51°13.597 2°56.095 126.6 -999 144 -999
2006-02-23 08:30:47 51°13.597 2°56.095 126.6 0.1 148 -999
2006-02-23 08:30:52 51°13.598 2°56.095 126.6 -999 158 -999
2006-02-23 08:30:57 51°13.598 2°56.095 126.5 -999 164 -999
2006-02-23 08:31:03 51°13.598 2°56.095 126.5 -999 272 -999
2006-02-23 08:31:07 51°13.598 2°56.094 126.5 -999 136 -999
2006-02-23 08:31:12 51°13.598 2°56.094 126.5 -999 284 -999
2006-02-23 08:31:18 51°13.598 2°56.094 126.5 -999 332 -999
2006-02-23 08:31:23 51°13.598 2°56.094 126.5 -999 178 -999
2006-02-23 08:31:27 51°13.598 2°56.094 126.5 -999 139 -999
2006-02-23 08:31:32 51°13.598 2°56.094 126.5 -999 136 -999
2006-02-23 08:31:37 51°13.598 2°56.094 126.5 -999 149 -999
2006-02-23 08:31:42 51°13.598 2°56.094 126.5 -999 154 -999
2006-02-23 08:31:47 51°13.598 2°56.094 126.5 -999 154 -999
2006-02-23 08:31:52 51°13.598 2°56.094 126.5 -999 149 -999
2006-02-23 08:31:57 51°13.598 2°56.094 126.5 -999 151 -999
2006-02-23 08:32:02 51°13.598 2°56.094 126.5 -999 156 -999
2006-02-23 08:32:07 51°13.598 2°56.094 126.6 -999 151 -999
2006-02-23 08:32:12 51°13.598 2°56.094 126.6 -999 203 -999
2006-02-23 08:32:17 51°13.598 2°56.094 126.6 -999 334 -999
2006-02-23 08:32:23 51°13.598 2°56.094 126.6 -999 73 -999
2006-02-23 08:32:27 51°13.598 2°56.094 126.6 -999 217 -999
2006-02-23 08:32:32 51°13.599 2°56.094 126.6 0.1 332 -999
2006-02-23 08:32:37 51°13.598 2°56.094 126.6 0.1 314 -999
2006-02-23 08:32:43 51°13.598 2°56.094 126.6 -999 83 -999
2006-02-23 08:32:47 51°13.598 2°56.094 126.6 -999 79 -999
2006-02-23 08:32:53 51°13.598 2°56.094 126.6 -999 160 -999
2006-02-23 08:32:57 51°13.598 2°56.094 126.6 -999 208 -999
2006-02-23 08:33:03 51°13.598 2°56.094 126.6 -999 311 -999
2006-02-23 08:33:07 51°13.598 2°56.094 126.6 -999 284 -999
2006-02-23 08:33:12 51°13.598 2°56.094 126.6 -999 120 -999
2006-02-23 08:33:17 51°13.599 2°56.094 126.6 -999 140 -999
2006-02-23 08:33:23 51°13.599 2°56.094 126.6 -999 126 -999
2006-02-23 08:33:27 51°13.599 2°56.094 126.6 -999 166 -999
2006-02-23 08:33:32 51°13.599 2°56.094 126.6 -999 288 -999
2006-02-23 08:33:37 51°13.599 2°56.094 126.6 -999 236 -999
2006-02-23 08:33:43 51°13.599 2°56.094 126.6 -999 172 -999
2006-02-23 08:33:47 51°13.6 2°56.094 126.6 0.1 316 -999
2006-02-23 08:33:52 51°13.6 2°56.094 126.6 0.1 320 -999
2006-02-23 08:33:57 51°13.6 2°56.094 126.6 -999 96 -999
2006-02-23 08:34:03 51°13.6 2°56.094 126.6 -999 332 -999
2006-02-23 08:34:07 51°13.6 2°56.094 126.6 -999 146 -999
2006-02-23 08:34:12 51°13.6 2°56.094 126.5 -999 132 -999
2006-02-23 08:34:17 51°13.6 2°56.094 126.5 -999 163 -999
2006-02-23 08:34:22 51°13.599 2°56.094 126.4 -999 303 -999
2006-02-23 08:34:27 51°13.599 2°56.094 126.4 -999 208 -999
2006-02-23 08:34:32 51°13.598 2°56.093 126.4 -999 40 -999
2006-02-23 08:34:37 51°13.597 2°56.093 126.4 -999 126 -999
2006-02-23 08:34:43 51°13.597 2°56.093 126.4 -999 146 -999
2006-02-23 08:34:47 51°13.597 2°56.093 126.4 -999 130 -999
2006-02-23 08:34:53 51°13.597 2°56.093 126.4 -999 162 -999
2006-02-23 08:34:57 51°13.597 2°56.093 126.4 -999 131 -999
2006-02-23 08:35:03 51°13.597 2°56.093 126.5 -999 234 -999
2006-02-23 08:35:07 51°13.597 2°56.093 126.6 0.1 132 -999
2006-02-23 08:35:12 51°13.597 2°56.093 126.6 -999 151 -999
2006-02-23 08:35:17 51°13.597 2°56.093 126.8 -999 136 -999
2006-02-23 08:35:23 51°13.597 2°56.093 126.8 -999 125 -999
2006-02-23 08:35:27 51°13.597 2°56.093 126.9 0.1 125 -999
2006-02-23 08:35:32 51°13.597 2°56.093 127 -999 155 -999
2006-02-23 08:35:37 51°13.597 2°56.093 127.1 -999 140 -999
2006-02-23 08:35:43 51°13.597 2°56.093 127.1 -999 117 -999
2006-02-23 08:35:47 51°13.597 2°56.093 127.1 -999 143 -999
2006-02-23 08:35:52 51°13.597 2°56.093 127.1 -999 133 -999
2006-02-23 08:35:57 51°13.597 2°56.093 127.1 0.1 154 -999
2006-02-23 08:36:03 51°13.597 2°56.093 127.2 -999 36 -999
2006-02-23 08:36:07 51°13.597 2°56.093 127.2 -999 166 -999
2006-02-23 08:36:12 51°13.597 2°56.093 127.2 -999 123 -999
2006-02-23 08:36:17 51°13.597 2°56.093 127.3 0.1 329 -999
2006-02-23 08:36:22 51°13.597 2°56.093 127.3 0.1 323 -999
2006-02-23 08:36:27 51°13.597 2°56.093 127.4 -999 159 -999
2006-02-23 08:36:32 51°13.597 2°56.093 127.5 -999 208 -999
2006-02-23 08:36:37 51°13.597 2°56.093 127.6 -999 150 -999
2006-02-23 08:36:42 51°13.597 2°56.093 127.6 -999 162 -999
2006-02-23 08:36:47 51°13.597 2°56.093 127.6 -999 312 -999
2006-02-23 08:36:52 51°13.597 2°56.093 127.7 -999 265 -999
2006-02-23 08:36:57 51°13.597 2°56.093 127.7 -999 312 -999
2006-02-23 08:37:03 51°13.597 2°56.093 127.6 -999 142 -999
2006-02-23 08:37:07 51°13.597 2°56.093 127.6 -999 162 -999
2006-02-23 08:37:12 51°13.597 2°56.094 127.5 -999 143 -999
2006-02-23 08:37:17 51°13.597 2°56.094 127.5 -999 178 -999
2006-02-23 08:37:23 51°13.597 2°56.094 127.5 -999 342 -999
2006-02-23 08:37:27 51°13.597 2°56.094 127.5 -999 356 -999
2006-02-23 08:37:33 51°13.597 2°56.094 127.5 -999 327 -999
2006-02-23 08:37:37 51°13.597 2°56.094 127.5 -999 307 -999
2006-02-23 08:37:43 51°13.597 2°56.094 127.5 0.1 163 -999
2006-02-23 08:37:47 51°13.597 2°56.094 127.4 -999 161 -999
2006-02-23 08:37:52 51°13.597 2°56.094 127.4 -999 209 -999
2006-02-23 08:37:57 51°13.597 2°56.094 127.3 -999 146 -999
2006-02-23 08:38:03 51°13.597 2°56.094 127.3 -999 143 -999
2006-02-23 08:38:07 51°13.597 2°56.094 127.2 -999 143 -999
2006-02-23 08:38:12 51°13.597 2°56.093 127.2 -999 109 -999
2006-02-23 08:38:17 51°13.597 2°56.093 127.2 -999 309 -999
2006-02-23 08:38:23 51°13.597 2°56.093 127.2 -999 97 -999
2006-02-23 08:38:27 51°13.597 2°56.093 127.1 -999 280 -999
2006-02-23 08:38:32 51°13.597 2°56.094 127.1 -999 140 -999
2006-02-23 08:38:37 51°13.598 2°56.094 127.1 -999 312 -999
2006-02-23 08:38:42 51°13.598 2°56.094 127.1 -999 289 -999
2006-02-23 08:38:47 51°13.598 2°56.094 127.1 -999 129 -999
2006-02-23 08:38:53 51°13.598 2°56.094 127.1 0.1 141 -999
2006-02-23 08:38:57 51°13.598 2°56.094 127.1 -999 136 -999
2006-02-23 08:39:02 51°13.598 2°56.094 127.1 -999 351 -999
2006-02-23 08:39:07 51°13.598 2°56.094 127.1 -999 185 -999
2006-02-23 08:39:12 51°13.598 2°56.094 127.1 -999 332 -999
2006-02-23 08:39:17 51°13.598 2°56.094 127.1 -999 250 -999
2006-02-23 08:39:23 51°13.598 2°56.094 127.1 -999 97 -999
2006-02-23 08:39:27 51°13.598 2°56.094 127.1 -999 190 -999
2006-02-23 08:39:33 51°13.598 2°56.094 127.1 -999 156 -999
2006-02-23 08:39:37 51°13.598 2°56.094 127.1 -999 155 -999
2006-02-23 08:39:42 51°13.598 2°56.094 127.1 -999 111 -999
2006-02-23 08:39:47 51°13.598 2°56.094 127.1 -999 146 -999
2006-02-23 08:39:53 51°13.598 2°56.094 127.1 -999 133 -999
2006-02-23 08:39:57 51°13.598 2°56.094 127.1 0.1 138 -999
2006-02-23 08:40:03 51°13.598 2°56.094 127.1 -999 148 -999
2006-02-23 08:40:07 51°13.598 2°56.094 127.1 -999 155 -999
2006-02-23 08:40:12 51°13.598 2°56.094 127.1 -999 145 -999
2006-02-23 08:40:17 51°13.598 2°56.094 127.1 0.1 157 -999
2006-02-23 08:40:23 51°13.597 2°56.094 127.1 -999 177 -999
2006-02-23 08:40:27 51°13.598 2°56.094 127.2 0.1 150 -999
2006-02-23 08:40:32 51°13.598 2°56.094 127.2 -999 160 -999
2006-02-23 08:40:37 51°13.598 2°56.094 127.3 -999 159 -999
2006-02-23 08:40:43 51°13.598 2°56.094 127.4 -999 152 -999
2006-02-23 08:40:47 51°13.598 2°56.094 127.4 -999 154 -999
2006-02-23 08:40:53 51°13.598 2°56.094 127.4 -999 103 -999
2006-02-23 08:40:57 51°13.598 2°56.094 127.4 -999 306 -999
2006-02-23 08:41:02 51°13.598 2°56.094 127.4 -999 343 -999
2006-02-23 08:41:07 51°13.597 2°56.094 127.4 -999 148 -999
2006-02-23 08:41:12 51°13.597 2°56.094 127.3 -999 140 -999
2006-02-23 08:41:17 51°13.597 2°56.094 127.3 -999 304 -999
2006-02-23 08:41:23 51°13.598 2°56.094 127.3 -999 114 -999
2006-02-23 08:41:27 51°13.598 2°56.094 127.3 -999 301 -999
2006-02-23 08:41:32 51°13.598 2°56.094 127.3 -999 136 -999
2006-02-23 08:41:37 51°13.598 2°56.094 127.3 -999 237 -999
2006-02-23 08:41:42 51°13.598 2°56.094 127.3 -999 283 -999
2006-02-23 08:41:47 51°13.598 2°56.094 127.3 -999 304 -999
2006-02-23 08:41:53 51°13.598 2°56.094 127.3 -999 57 -999
2006-02-23 08:41:57 51°13.598 2°56.094 127.3 0.1 138 -999
2006-02-23 08:42:03 51°13.597 2°56.094 127.3 -999 158 -999
2006-02-23 08:42:07 51°13.598 2°56.094 127.3 -999 309 -999
2006-02-23 08:42:12 51°13.598 2°56.094 127.3 -999 322 -999
2006-02-23 08:42:17 51°13.598 2°56.094 127.3 -999 344 -999
2006-02-23 08:42:23 51°13.597 2°56.094 127.3 0.1 145 -999
2006-02-23 08:42:27 51°13.597 2°56.094 127.3 0.1 156 -999
2006-02-23 08:42:32 51°13.597 2°56.094 127.3 -999 147 -999
2006-02-23 08:42:37 51°13.597 2°56.094 127.2 -999 156 -999
2006-02-23 08:42:43 51°13.597 2°56.094 127.2 -999 130 -999
2006-02-23 08:42:47 51°13.597 2°56.094 127.2 0.1 148 -999